KMI weather

Miyazaki Airport
Miyazaki, Miyazaki Prefecture, Japan

Public forecast

Using degrees Celsius for public forecast. Weather courtesy of forecast.io.

METAR (pilot weather report)

Report is more than 6 hours old.

Retrieved 2019/09/16 12:00 UTC (8 hours ago):

RJFM 161200Z 01014KT 9999 FEW030 BKN050 27/19 Q1004

TAF (pilot weather forecast)

Retrieved 2019/09/16 18:00 UTC (2 hours ago):

TAF RJFM 161707Z 1618/1800 01008KT 9999 FEW030 SCT045 BECMG 1712/1715 33005KT